sensor_id;sensor_type;location;lat;lon;timestamp;P1;durP1;ratioP1;P2;durP2;ratioP2
18322;SDS011;9287;49.456;11.064;2023-11-21T00:00:50;1.33;;;0.70;;
18322;SDS011;9287;49.456;11.064;2023-11-21T00:03:18;1.63;;;0.70;;
18322;SDS011;9287;49.456;11.064;2023-11-21T00:05:48;3.77;;;0.80;;
18322;SDS011;9287;49.456;11.064;2023-11-21T00:08:18;1.00;;;0.60;;
18322;SDS011;9287;49.456;11.064;2023-11-21T00:10:47;1.73;;;0.70;;
18322;SDS011;9287;49.456;11.064;2023-11-21T00:13:20;1.23;;;0.50;;
18322;SDS011;9287;49.456;11.064;2023-11-21T00:15:48;2.00;;;0.70;;
18322;SDS011;9287;49.456;11.064;2023-11-21T00:18:16;0.73;;;0.60;;
18322;SDS011;9287;49.456;11.064;2023-11-21T00:20:44;3.53;;;0.60;;
18322;SDS011;9287;49.456;11.064;2023-11-21T00:23:13;1.30;;;0.60;;
18322;SDS011;9287;49.456;11.064;2023-11-21T00:25:40;1.53;;;0.80;;
18322;SDS011;9287;49.456;11.064;2023-11-21T00:28:10;1.23;;;0.50;;
18322;SDS011;9287;49.456;11.064;2023-11-21T00:30:40;1.50;;;0.50;;
18322;SDS011;9287;49.456;11.064;2023-11-21T00:33:09;0.77;;;0.30;;
18322;SDS011;9287;49.456;11.064;2023-11-21T00:35:38;1.43;;;0.60;;
18322;SDS011;9287;49.456;11.064;2023-11-21T00:38:06;3.60;;;0.77;;
18322;SDS011;9287;49.456;11.064;2023-11-21T00:40:36;3.27;;;0.50;;
18322;SDS011;9287;49.456;11.064;2023-11-21T00:43:05;0.97;;;0.50;;
18322;SDS011;9287;49.456;11.064;2023-11-21T00:45:34;1.53;;;0.80;;
18322;SDS011;9287;49.456;11.064;2023-11-21T00:48:05;1.50;;;0.73;;
18322;SDS011;9287;49.456;11.064;2023-11-21T00:50:34;1.37;;;0.67;;
18322;SDS011;9287;49.456;11.064;2023-11-21T00:53:02;3.70;;;0.73;;
18322;SDS011;9287;49.456;11.064;2023-11-21T00:55:30;1.83;;;0.90;;
18322;SDS011;9287;49.456;11.064;2023-11-21T00:57:59;3.13;;;0.80;;
18322;SDS011;9287;49.456;11.064;2023-11-21T01:00:29;1.10;;;0.80;;
18322;SDS011;9287;49.456;11.064;2023-11-21T01:02:58;3.27;;;0.93;;
18322;SDS011;9287;49.456;11.064;2023-11-21T01:05:28;3.07;;;1.10;;
18322;SDS011;9287;49.456;11.064;2023-11-21T01:07:58;2.80;;;1.20;;
18322;SDS011;9287;49.456;11.064;2023-11-21T01:10:26;1.80;;;1.10;;
18322;SDS011;9287;49.456;11.064;2023-11-21T01:12:54;3.33;;;1.00;;
18322;SDS011;9287;49.456;11.064;2023-11-21T01:15:22;2.13;;;1.13;;
18322;SDS011;9287;49.456;11.064;2023-11-21T01:17:52;1.53;;;0.87;;
18322;SDS011;9287;49.456;11.064;2023-11-21T01:20:20;5.07;;;1.10;;
18322;SDS011;9287;49.456;11.064;2023-11-21T01:22:50;2.07;;;0.87;;
18322;SDS011;9287;49.456;11.064;2023-11-21T01:25:18;2.70;;;0.90;;
18322;SDS011;9287;49.456;11.064;2023-11-21T01:27:47;1.80;;;0.70;;
18322;SDS011;9287;49.456;11.064;2023-11-21T01:30:15;1.93;;;0.70;;
18322;SDS011;9287;49.456;11.064;2023-11-21T01:32:43;3.87;;;1.03;;
18322;SDS011;9287;49.456;11.064;2023-11-21T01:35:11;2.13;;;0.70;;
18322;SDS011;9287;49.456;11.064;2023-11-21T01:37:41;2.30;;;0.80;;
18322;SDS011;9287;49.456;11.064;2023-11-21T01:40:11;2.83;;;0.70;;
18322;SDS011;9287;49.456;11.064;2023-11-21T01:42:41;1.63;;;0.70;;
18322;SDS011;9287;49.456;11.064;2023-11-21T01:45:10;2.67;;;0.80;;
18322;SDS011;9287;49.456;11.064;2023-11-21T01:47:39;1.53;;;0.70;;
18322;SDS011;9287;49.456;11.064;2023-11-21T01:50:09;1.50;;;0.80;;
18322;SDS011;9287;49.456;11.064;2023-11-21T01:52:40;1.80;;;0.60;;
18322;SDS011;9287;49.456;11.064;2023-11-21T01:55:18;1.73;;;0.77;;
18322;SDS011;9287;49.456;11.064;2023-11-21T01:57:54;1.20;;;0.77;;
18322;SDS011;9287;49.456;11.064;2023-11-21T02:00:22;3.47;;;0.80;;
18322;SDS011;9287;49.456;11.064;2023-11-21T02:02:50;1.43;;;0.70;;
18322;SDS011;9287;49.456;11.064;2023-11-21T02:05:19;2.83;;;0.70;;
18322;SDS011;9287;49.456;11.064;2023-11-21T02:07:48;2.83;;;0.63;;
18322;SDS011;9287;49.456;11.064;2023-11-21T02:10:18;3.20;;;0.70;;
18322;SDS011;9287;49.456;11.064;2023-11-21T02:12:49;1.43;;;0.60;;
18322;SDS011;9287;49.456;11.064;2023-11-21T02:15:17;0.90;;;0.50;;
18322;SDS011;9287;49.456;11.064;2023-11-21T02:17:47;1.27;;;0.60;;
18322;SDS011;9287;49.456;11.064;2023-11-21T02:20:19;1.00;;;0.50;;
18322;SDS011;9287;49.456;11.064;2023-11-21T02:22:53;3.87;;;0.67;;
18322;SDS011;9287;49.456;11.064;2023-11-21T02:25:25;1.40;;;0.60;;
18322;SDS011;9287;49.456;11.064;2023-11-21T02:27:54;0.93;;;0.50;;
18322;SDS011;9287;49.456;11.064;2023-11-21T02:30:22;1.27;;;0.60;;
18322;SDS011;9287;49.456;11.064;2023-11-21T02:32:51;2.00;;;0.70;;
18322;SDS011;9287;49.456;11.064;2023-11-21T02:35:20;2.90;;;1.10;;
18322;SDS011;9287;49.456;11.064;2023-11-21T02:37:48;2.43;;;0.87;;
18322;SDS011;9287;49.456;11.064;2023-11-21T02:40:18;3.40;;;0.90;;
18322;SDS011;9287;49.456;11.064;2023-11-21T02:42:47;1.73;;;0.80;;
18322;SDS011;9287;49.456;11.064;2023-11-21T02:45:17;1.30;;;0.90;;
18322;SDS011;9287;49.456;11.064;2023-11-21T02:47:47;1.30;;;0.87;;
18322;SDS011;9287;49.456;11.064;2023-11-21T02:50:16;2.23;;;0.80;;
18322;SDS011;9287;49.456;11.064;2023-11-21T02:52:45;1.10;;;0.93;;
18322;SDS011;9287;49.456;11.064;2023-11-21T02:55:13;1.83;;;0.87;;
18322;SDS011;9287;49.456;11.064;2023-11-21T02:57:43;1.83;;;0.70;;
18322;SDS011;9287;49.456;11.064;2023-11-21T03:00:11;2.30;;;1.10;;
18322;SDS011;9287;49.456;11.064;2023-11-21T03:02:41;1.20;;;0.67;;
18322;SDS011;9287;49.456;11.064;2023-11-21T03:05:10;0.77;;;0.63;;
18322;SDS011;9287;49.456;11.064;2023-11-21T03:07:38;4.13;;;0.80;;
18322;SDS011;9287;49.456;11.064;2023-11-21T03:10:07;2.57;;;0.80;;
18322;SDS011;9287;49.456;11.064;2023-11-21T03:12:37;2.60;;;1.10;;
18322;SDS011;9287;49.456;11.064;2023-11-21T03:15:07;2.63;;;0.87;;
18322;SDS011;9287;49.456;11.064;2023-11-21T03:17:36;2.70;;;1.10;;
18322;SDS011;9287;49.456;11.064;2023-11-21T03:20:05;1.40;;;1.00;;
18322;SDS011;9287;49.456;11.064;2023-11-21T03:22:38;1.20;;;0.83;;
18322;SDS011;9287;49.456;11.064;2023-11-21T03:25:06;1.87;;;0.80;;
18322;SDS011;9287;49.456;11.064;2023-11-21T03:27:37;1.73;;;0.80;;
18322;SDS011;9287;49.456;11.064;2023-11-21T03:30:08;4.67;;;0.90;;
18322;SDS011;9287;49.456;11.064;2023-11-21T03:32:37;1.63;;;0.70;;
18322;SDS011;9287;49.456;11.064;2023-11-21T03:35:05;1.97;;;0.90;;
18322;SDS011;9287;49.456;11.064;2023-11-21T03:37:34;1.07;;;0.80;;
18322;SDS011;9287;49.456;11.064;2023-11-21T03:40:01;2.33;;;0.73;;
18322;SDS011;9287;49.456;11.064;2023-11-21T03:42:31;2.70;;;0.87;;
18322;SDS011;9287;49.456;11.064;2023-11-21T03:44:59;2.33;;;0.80;;
18322;SDS011;9287;49.456;11.064;2023-11-21T03:47:28;3.93;;;1.10;;
18322;SDS011;9287;49.456;11.064;2023-11-21T03:49:56;2.50;;;1.00;;
18322;SDS011;9287;49.456;11.064;2023-11-21T03:52:24;2.90;;;0.87;;
18322;SDS011;9287;49.456;11.064;2023-11-21T03:54:53;2.63;;;0.80;;
18322;SDS011;9287;49.456;11.064;2023-11-21T03:57:21;0.80;;;0.80;;
18322;SDS011;9287;49.456;11.064;2023-11-21T03:59:49;1.97;;;0.90;;
18322;SDS011;9287;49.456;11.064;2023-11-21T04:02:17;1.83;;;0.90;;
18322;SDS011;9287;49.456;11.064;2023-11-21T04:04:48;0.90;;;0.90;;
18322;SDS011;9287;49.456;11.064;2023-11-21T04:07:16;1.90;;;1.00;;
18322;SDS011;9287;49.456;11.064;2023-11-21T04:09:43;2.13;;;1.03;;
18322;SDS011;9287;49.456;11.064;2023-11-21T04:12:11;1.40;;;0.80;;
18322;SDS011;9287;49.456;11.064;2023-11-21T04:14:39;2.93;;;0.87;;
18322;SDS011;9287;49.456;11.064;2023-11-21T04:17:07;2.30;;;1.00;;
18322;SDS011;9287;49.456;11.064;2023-11-21T04:19:36;2.83;;;0.90;;
18322;SDS011;9287;49.456;11.064;2023-11-21T04:22:05;2.50;;;1.00;;
18322;SDS011;9287;49.456;11.064;2023-11-21T04:24:37;1.53;;;0.87;;
18322;SDS011;9287;49.456;11.064;2023-11-21T04:27:05;1.97;;;0.80;;
18322;SDS011;9287;49.456;11.064;2023-11-21T04:29:37;1.50;;;0.80;;
18322;SDS011;9287;49.456;11.064;2023-11-21T04:32:05;2.00;;;0.90;;
18322;SDS011;9287;49.456;11.064;2023-11-21T04:34:35;2.80;;;0.90;;
18322;SDS011;9287;49.456;11.064;2023-11-21T04:37:06;1.73;;;0.73;;
18322;SDS011;9287;49.456;11.064;2023-11-21T04:39:35;4.77;;;0.90;;
18322;SDS011;9287;49.456;11.064;2023-11-21T04:42:04;3.57;;;1.00;;
18322;SDS011;9287;49.456;11.064;2023-11-21T04:44:35;2.13;;;0.90;;
18322;SDS011;9287;49.456;11.064;2023-11-21T04:47:03;2.27;;;1.07;;
18322;SDS011;9287;49.456;11.064;2023-11-21T04:49:31;1.57;;;0.80;;
18322;SDS011;9287;49.456;11.064;2023-11-21T04:51:59;0.87;;;0.77;;
18322;SDS011;9287;49.456;11.064;2023-11-21T04:54:34;1.87;;;0.90;;
18322;SDS011;9287;49.456;11.064;2023-11-21T04:57:01;2.03;;;0.70;;
18322;SDS011;9287;49.456;11.064;2023-11-21T04:59:30;1.27;;;0.90;;
18322;SDS011;9287;49.456;11.064;2023-11-21T05:01:59;2.90;;;0.90;;
18322;SDS011;9287;49.456;11.064;2023-11-21T05:04:28;1.40;;;0.70;;
18322;SDS011;9287;49.456;11.064;2023-11-21T05:06:56;1.57;;;1.03;;
18322;SDS011;9287;49.456;11.064;2023-11-21T05:09:32;1.80;;;0.97;;
18322;SDS011;9287;49.456;11.064;2023-11-21T05:12:02;1.60;;;0.93;;
18322;SDS011;9287;49.456;11.064;2023-11-21T05:14:30;1.27;;;0.80;;
18322;SDS011;9287;49.456;11.064;2023-11-21T05:17:00;1.57;;;0.70;;
18322;SDS011;9287;49.456;11.064;2023-11-21T05:19:29;1.90;;;0.90;;
18322;SDS011;9287;49.456;11.064;2023-11-21T05:21:58;1.20;;;0.80;;
18322;SDS011;9287;49.456;11.064;2023-11-21T05:24:29;1.00;;;0.80;;
18322;SDS011;9287;49.456;11.064;2023-11-21T05:26:59;2.13;;;0.83;;
18322;SDS011;9287;49.456;11.064;2023-11-21T05:29:31;1.70;;;0.90;;
18322;SDS011;9287;49.456;11.064;2023-11-21T05:31:59;3.00;;;1.60;;
18322;SDS011;9287;49.456;11.064;2023-11-21T05:34:29;2.03;;;1.40;;
18322;SDS011;9287;49.456;11.064;2023-11-21T05:37:00;1.80;;;1.37;;
18322;SDS011;9287;49.456;11.064;2023-11-21T05:39:31;3.80;;;1.73;;
18322;SDS011;9287;49.456;11.064;2023-11-21T05:42:04;4.53;;;1.60;;
18322;SDS011;9287;49.456;11.064;2023-11-21T05:44:35;3.00;;;1.80;;
18322;SDS011;9287;49.456;11.064;2023-11-21T05:47:09;2.73;;;1.67;;
18322;SDS011;9287;49.456;11.064;2023-11-21T05:49:41;1.63;;;1.40;;
18322;SDS011;9287;49.456;11.064;2023-11-21T05:52:10;2.27;;;1.90;;
18322;SDS011;9287;49.456;11.064;2023-11-21T05:54:38;1.90;;;1.37;;
18322;SDS011;9287;49.456;11.064;2023-11-21T05:57:10;5.20;;;1.70;;
18322;SDS011;9287;49.456;11.064;2023-11-21T05:59:45;3.20;;;1.70;;
18322;SDS011;9287;49.456;11.064;2023-11-21T06:02:17;1.63;;;1.50;;
18322;SDS011;9287;49.456;11.064;2023-11-21T06:04:54;3.27;;;1.73;;
18322;SDS011;9287;49.456;11.064;2023-11-21T06:07:24;2.20;;;1.77;;
18322;SDS011;9287;49.456;11.064;2023-11-21T06:09:59;4.10;;;2.20;;
18322;SDS011;9287;49.456;11.064;2023-11-21T06:12:33;3.63;;;2.87;;
18322;SDS011;9287;49.456;11.064;2023-11-21T06:15:02;5.73;;;4.30;;
18322;SDS011;9287;49.456;11.064;2023-11-21T06:17:32;4.17;;;1.93;;
18322;SDS011;9287;49.456;11.064;2023-11-21T06:20:03;5.77;;;1.90;;
18322;SDS011;9287;49.456;11.064;2023-11-21T06:22:36;2.10;;;1.87;;
18322;SDS011;9287;49.456;11.064;2023-11-21T06:25:05;3.13;;;2.13;;
18322;SDS011;9287;49.456;11.064;2023-11-21T06:27:39;5.30;;;1.70;;
18322;SDS011;9287;49.456;11.064;2023-11-21T06:30:11;3.00;;;2.03;;
18322;SDS011;9287;49.456;11.064;2023-11-21T06:32:42;2.33;;;2.07;;
18322;SDS011;9287;49.456;11.064;2023-11-21T06:35:12;5.43;;;2.03;;
18322;SDS011;9287;49.456;11.064;2023-11-21T06:37:42;2.50;;;2.07;;
18322;SDS011;9287;49.456;11.064;2023-11-21T06:40:14;3.73;;;2.13;;
18322;SDS011;9287;49.456;11.064;2023-11-21T06:42:43;3.13;;;2.50;;
18322;SDS011;9287;49.456;11.064;2023-11-21T06:45:13;3.10;;;2.80;;
18322;SDS011;9287;49.456;11.064;2023-11-21T06:47:42;3.07;;;2.17;;
18322;SDS011;9287;49.456;11.064;2023-11-21T06:50:10;5.13;;;2.50;;
18322;SDS011;9287;49.456;11.064;2023-11-21T06:52:38;4.43;;;2.27;;
18322;SDS011;9287;49.456;11.064;2023-11-21T06:55:06;3.03;;;2.20;;
18322;SDS011;9287;49.456;11.064;2023-11-21T06:57:36;3.33;;;2.00;;
18322;SDS011;9287;49.456;11.064;2023-11-21T07:00:07;3.77;;;2.17;;
18322;SDS011;9287;49.456;11.064;2023-11-21T07:02:36;3.13;;;2.03;;
18322;SDS011;9287;49.456;11.064;2023-11-21T07:05:05;3.83;;;2.10;;
18322;SDS011;9287;49.456;11.064;2023-11-21T07:07:33;2.90;;;1.93;;
18322;SDS011;9287;49.456;11.064;2023-11-21T07:10:02;3.13;;;2.33;;
18322;SDS011;9287;49.456;11.064;2023-11-21T07:12:32;4.60;;;1.90;;
18322;SDS011;9287;49.456;11.064;2023-11-21T07:15:00;3.07;;;2.00;;
18322;SDS011;9287;49.456;11.064;2023-11-21T07:17:30;5.17;;;2.57;;
18322;SDS011;9287;49.456;11.064;2023-11-21T07:19:58;2.70;;;2.17;;
18322;SDS011;9287;49.456;11.064;2023-11-21T07:22:26;2.20;;;2.00;;
18322;SDS011;9287;49.456;11.064;2023-11-21T07:24:54;3.23;;;2.03;;
18322;SDS011;9287;49.456;11.064;2023-11-21T07:27:23;2.93;;;2.37;;
18322;SDS011;9287;49.456;11.064;2023-11-21T07:29:51;3.23;;;2.97;;
18322;SDS011;9287;49.456;11.064;2023-11-21T07:32:19;4.60;;;2.20;;
18322;SDS011;9287;49.456;11.064;2023-11-21T07:34:48;4.23;;;3.07;;
18322;SDS011;9287;49.456;11.064;2023-11-21T07:37:16;4.97;;;2.40;;
18322;SDS011;9287;49.456;11.064;2023-11-21T07:39:44;2.83;;;2.30;;
18322;SDS011;9287;49.456;11.064;2023-11-21T07:42:13;3.70;;;2.30;;
18322;SDS011;9287;49.456;11.064;2023-11-21T07:44:43;2.80;;;2.00;;
18322;SDS011;9287;49.456;11.064;2023-11-21T07:47:13;3.37;;;2.60;;
18322;SDS011;9287;49.456;11.064;2023-11-21T07:49:41;5.20;;;2.80;;
18322;SDS011;9287;49.456;11.064;2023-11-21T07:52:12;3.17;;;2.40;;
18322;SDS011;9287;49.456;11.064;2023-11-21T07:54:42;5.07;;;2.50;;
18322;SDS011;9287;49.456;11.064;2023-11-21T07:57:10;3.23;;;2.43;;
18322;SDS011;9287;49.456;11.064;2023-11-21T07:59:39;5.37;;;2.83;;
18322;SDS011;9287;49.456;11.064;2023-11-21T08:02:08;3.83;;;2.30;;
18322;SDS011;9287;49.456;11.064;2023-11-21T08:04:35;3.27;;;2.60;;
18322;SDS011;9287;49.456;11.064;2023-11-21T08:07:04;4.97;;;2.67;;
18322;SDS011;9287;49.456;11.064;2023-11-21T08:09:33;2.93;;;2.40;;
18322;SDS011;9287;49.456;11.064;2023-11-21T08:12:01;5.83;;;2.90;;
18322;SDS011;9287;49.456;11.064;2023-11-21T08:14:29;4.80;;;3.30;;
18322;SDS011;9287;49.456;11.064;2023-11-21T08:16:57;5.33;;;3.53;;
18322;SDS011;9287;49.456;11.064;2023-11-21T08:19:27;5.43;;;3.00;;
18322;SDS011;9287;49.456;11.064;2023-11-21T08:21:55;8.70;;;4.13;;
18322;SDS011;9287;49.456;11.064;2023-11-21T08:24:25;5.20;;;3.33;;
18322;SDS011;9287;49.456;11.064;2023-11-21T08:26:55;6.43;;;3.37;;
18322;SDS011;9287;49.456;11.064;2023-11-21T08:29:24;6.37;;;3.73;;
18322;SDS011;9287;49.456;11.064;2023-11-21T08:31:52;3.50;;;3.20;;
18322;SDS011;9287;49.456;11.064;2023-11-21T08:34:20;5.50;;;5.00;;
18322;SDS011;9287;49.456;11.064;2023-11-21T08:36:48;6.20;;;4.97;;
18322;SDS011;9287;49.456;11.064;2023-11-21T08:39:17;5.70;;;4.17;;
18322;SDS011;9287;49.456;11.064;2023-11-21T08:41:46;5.53;;;3.80;;
18322;SDS011;9287;49.456;11.064;2023-11-21T08:44:15;6.90;;;3.30;;
18322;SDS011;9287;49.456;11.064;2023-11-21T08:46:44;3.70;;;2.97;;
18322;SDS011;9287;49.456;11.064;2023-11-21T08:49:13;5.50;;;3.03;;
18322;SDS011;9287;49.456;11.064;2023-11-21T08:51:41;5.47;;;3.67;;
18322;SDS011;9287;49.456;11.064;2023-11-21T08:54:11;4.37;;;3.50;;
18322;SDS011;9287;49.456;11.064;2023-11-21T08:56:39;5.83;;;4.23;;
18322;SDS011;9287;49.456;11.064;2023-11-21T08:59:07;5.07;;;3.57;;
18322;SDS011;9287;49.456;11.064;2023-11-21T09:01:36;5.10;;;3.63;;
18322;SDS011;9287;49.456;11.064;2023-11-21T09:04:04;5.00;;;4.60;;
18322;SDS011;9287;49.456;11.064;2023-11-21T09:06:32;5.03;;;4.57;;
18322;SDS011;9287;49.456;11.064;2023-11-21T09:09:01;5.83;;;5.20;;
18322;SDS011;9287;49.456;11.064;2023-11-21T09:11:31;6.57;;;5.20;;
18322;SDS011;9287;49.456;11.064;2023-11-21T09:14:00;6.47;;;5.07;;
18322;SDS011;9287;49.456;11.064;2023-11-21T09:16:29;5.33;;;4.90;;
18322;SDS011;9287;49.456;11.064;2023-11-21T09:18:59;5.70;;;5.20;;
18322;SDS011;9287;49.456;11.064;2023-11-21T09:21:28;5.70;;;5.20;;
18322;SDS011;9287;49.456;11.064;2023-11-21T09:23:56;4.83;;;4.47;;
18322;SDS011;9287;49.456;11.064;2023-11-21T09:26:24;5.73;;;5.23;;
18322;SDS011;9287;49.456;11.064;2023-11-21T09:28:52;5.73;;;5.13;;
18322;SDS011;9287;49.456;11.064;2023-11-21T09:31:23;6.63;;;5.00;;
18322;SDS011;9287;49.456;11.064;2023-11-21T09:33:51;6.27;;;4.70;;
18322;SDS011;9287;49.456;11.064;2023-11-21T09:36:20;5.00;;;4.50;;
18322;SDS011;9287;49.456;11.064;2023-11-21T09:38:53;9.07;;;4.77;;
18322;SDS011;9287;49.456;11.064;2023-11-21T09:41:23;6.63;;;4.80;;
18322;SDS011;9287;49.456;11.064;2023-11-21T09:44:01;4.50;;;4.20;;
18322;SDS011;9287;49.456;11.064;2023-11-21T09:46:33;5.30;;;4.80;;
18322;SDS011;9287;49.456;11.064;2023-11-21T09:49:05;5.97;;;4.63;;
18322;SDS011;9287;49.456;11.064;2023-11-21T09:51:40;4.30;;;3.90;;
18322;SDS011;9287;49.456;11.064;2023-11-21T09:54:10;6.03;;;4.47;;
18322;SDS011;9287;49.456;11.064;2023-11-21T09:56:39;5.83;;;4.13;;
18322;SDS011;9287;49.456;11.064;2023-11-21T09:59:09;6.53;;;4.73;;
18322;SDS011;9287;49.456;11.064;2023-11-21T10:01:42;6.17;;;4.97;;
18322;SDS011;9287;49.456;11.064;2023-11-21T10:04:10;5.80;;;5.23;;
18322;SDS011;9287;49.456;11.064;2023-11-21T10:06:40;6.13;;;5.20;;
18322;SDS011;9287;49.456;11.064;2023-11-21T10:09:09;8.07;;;5.40;;
18322;SDS011;9287;49.456;11.064;2023-11-21T10:11:39;6.23;;;5.30;;
18322;SDS011;9287;49.456;11.064;2023-11-21T10:14:09;5.00;;;4.50;;
18322;SDS011;9287;49.456;11.064;2023-11-21T10:16:40;5.37;;;4.23;;
18322;SDS011;9287;49.456;11.064;2023-11-21T10:19:13;5.57;;;4.47;;
18322;SDS011;9287;49.456;11.064;2023-11-21T10:21:44;4.47;;;3.90;;
18322;SDS011;9287;49.456;11.064;2023-11-21T10:24:12;11.40;;;4.27;;
18322;SDS011;9287;49.456;11.064;2023-11-21T10:26:42;25.07;;;5.73;;
18322;SDS011;9287;49.456;11.064;2023-11-21T10:29:19;7.53;;;4.43;;
18322;SDS011;9287;49.456;11.064;2023-11-21T10:31:49;4.03;;;3.03;;
18322;SDS011;9287;49.456;11.064;2023-11-21T10:34:18;3.97;;;3.33;;
18322;SDS011;9287;49.456;11.064;2023-11-21T10:36:49;5.10;;;3.77;;
18322;SDS011;9287;49.456;11.064;2023-11-21T10:39:17;3.97;;;3.10;;
18322;SDS011;9287;49.456;11.064;2023-11-21T10:41:46;5.87;;;3.70;;
18322;SDS011;9287;49.456;11.064;2023-11-21T10:44:15;11.53;;;3.50;;
18322;SDS011;9287;49.456;11.064;2023-11-21T10:46:48;3.83;;;3.10;;
18322;SDS011;9287;49.456;11.064;2023-11-21T10:49:18;9.50;;;4.10;;
18322;SDS011;9287;49.456;11.064;2023-11-21T10:51:46;3.13;;;2.60;;
18322;SDS011;9287;49.456;11.064;2023-11-21T10:54:18;2.50;;;2.27;;
18322;SDS011;9287;49.456;11.064;2023-11-21T10:56:48;2.93;;;2.73;;
18322;SDS011;9287;49.456;11.064;2023-11-21T10:59:17;4.57;;;3.27;;
18322;SDS011;9287;49.456;11.064;2023-11-21T11:01:47;2.90;;;2.70;;
18322;SDS011;9287;49.456;11.064;2023-11-21T11:04:19;4.80;;;2.73;;
18322;SDS011;9287;49.456;11.064;2023-11-21T11:06:50;2.83;;;2.63;;
18322;SDS011;9287;49.456;11.064;2023-11-21T11:09:22;3.90;;;2.70;;
18322;SDS011;9287;49.456;11.064;2023-11-21T11:11:50;2.10;;;1.90;;
18322;SDS011;9287;49.456;11.064;2023-11-21T11:14:19;3.10;;;2.37;;
18322;SDS011;9287;49.456;11.064;2023-11-21T11:16:52;3.23;;;2.10;;
18322;SDS011;9287;49.456;11.064;2023-11-21T11:19:22;1.80;;;1.60;;
18322;SDS011;9287;49.456;11.064;2023-11-21T11:21:55;2.47;;;1.17;;
18322;SDS011;9287;49.456;11.064;2023-11-21T11:24:44;1.97;;;1.50;;
18322;SDS011;9287;49.456;11.064;2023-11-21T11:27:34;1.50;;;1.40;;
18322;SDS011;9287;49.456;11.064;2023-11-21T11:30:11;2.43;;;1.57;;
18322;SDS011;9287;49.456;11.064;2023-11-21T11:32:51;1.47;;;1.27;;
18322;SDS011;9287;49.456;11.064;2023-11-21T11:35:26;1.50;;;1.40;;
18322;SDS011;9287;49.456;11.064;2023-11-21T11:38:01;2.63;;;1.70;;
18322;SDS011;9287;49.456;11.064;2023-11-21T11:40:44;1.70;;;1.20;;
18322;SDS011;9287;49.456;11.064;2023-11-21T11:43:13;1.60;;;1.50;;
18322;SDS011;9287;49.456;11.064;2023-11-21T11:45:55;2.60;;;1.40;;
18322;SDS011;9287;49.456;11.064;2023-11-21T11:48:25;3.83;;;1.60;;
18322;SDS011;9287;49.456;11.064;2023-11-21T11:51:03;2.40;;;1.77;;
18322;SDS011;9287;49.456;11.064;2023-11-21T11:53:35;1.73;;;1.63;;
18322;SDS011;9287;49.456;11.064;2023-11-21T11:56:26;2.20;;;2.03;;
18322;SDS011;9287;49.456;11.064;2023-11-21T11:58:57;1.60;;;1.30;;
18322;SDS011;9287;49.456;11.064;2023-11-21T12:01:29;1.60;;;1.30;;
18322;SDS011;9287;49.456;11.064;2023-11-21T12:07:01;1.83;;;1.73;;
18322;SDS011;9287;49.456;11.064;2023-11-21T12:09:33;2.20;;;1.30;;
18322;SDS011;9287;49.456;11.064;2023-11-21T12:12:04;1.67;;;1.57;;
18322;SDS011;9287;49.456;11.064;2023-11-21T12:14:33;2.13;;;1.70;;
18322;SDS011;9287;49.456;11.064;2023-11-21T12:17:02;2.50;;;2.30;;
18322;SDS011;9287;49.456;11.064;2023-11-21T12:19:31;2.57;;;1.90;;
18322;SDS011;9287;49.456;11.064;2023-11-21T12:21:59;1.80;;;1.70;;
18322;SDS011;9287;49.456;11.064;2023-11-21T12:24:28;2.57;;;2.27;;
18322;SDS011;9287;49.456;11.064;2023-11-21T12:26:58;2.57;;;2.37;;
18322;SDS011;9287;49.456;11.064;2023-11-21T12:29:27;2.80;;;2.60;;
18322;SDS011;9287;49.456;11.064;2023-11-21T12:31:56;4.07;;;3.57;;
18322;SDS011;9287;49.456;11.064;2023-11-21T12:34:24;3.00;;;2.80;;
18322;SDS011;9287;49.456;11.064;2023-11-21T12:36:52;2.37;;;2.17;;
18322;SDS011;9287;49.456;11.064;2023-11-21T12:39:22;3.07;;;2.73;;
18322;SDS011;9287;49.456;11.064;2023-11-21T12:41:49;3.43;;;3.13;;
18322;SDS011;9287;49.456;11.064;2023-11-21T12:44:17;3.93;;;3.50;;
18322;SDS011;9287;49.456;11.064;2023-11-21T12:46:47;3.37;;;3.17;;
18322;SDS011;9287;49.456;11.064;2023-11-21T12:49:15;2.90;;;2.60;;
18322;SDS011;9287;49.456;11.064;2023-11-21T12:51:45;4.00;;;3.60;;
18322;SDS011;9287;49.456;11.064;2023-11-21T12:54:13;3.70;;;3.37;;
18322;SDS011;9287;49.456;11.064;2023-11-21T12:56:44;4.93;;;3.10;;
18322;SDS011;9287;49.456;11.064;2023-11-21T12:59:15;3.87;;;3.57;;
18322;SDS011;9287;49.456;11.064;2023-11-21T13:01:44;4.07;;;3.23;;
18322;SDS011;9287;49.456;11.064;2023-11-21T13:04:14;5.73;;;3.13;;
18322;SDS011;9287;49.456;11.064;2023-11-21T13:06:42;3.40;;;3.10;;
18322;SDS011;9287;49.456;11.064;2023-11-21T13:09:10;4.47;;;3.00;;
18322;SDS011;9287;49.456;11.064;2023-11-21T13:11:41;3.90;;;3.17;;
18322;SDS011;9287;49.456;11.064;2023-11-21T13:14:11;4.00;;;2.93;;
18322;SDS011;9287;49.456;11.064;2023-11-21T13:16:41;4.93;;;2.77;;
18322;SDS011;9287;49.456;11.064;2023-11-21T13:19:14;3.60;;;3.10;;
18322;SDS011;9287;49.456;11.064;2023-11-21T13:21:42;3.00;;;2.80;;
18322;SDS011;9287;49.456;11.064;2023-11-21T13:24:10;3.10;;;2.90;;
18322;SDS011;9287;49.456;11.064;2023-11-21T13:26:39;2.93;;;2.50;;
18322;SDS011;9287;49.456;11.064;2023-11-21T13:29:07;3.57;;;3.27;;
18322;SDS011;9287;49.456;11.064;2023-11-21T13:31:35;4.67;;;3.20;;
18322;SDS011;9287;49.456;11.064;2023-11-21T13:34:06;6.07;;;3.13;;
18322;SDS011;9287;49.456;11.064;2023-11-21T13:36:37;3.83;;;2.77;;
18322;SDS011;9287;49.456;11.064;2023-11-21T13:39:05;2.07;;;1.97;;
18322;SDS011;9287;49.456;11.064;2023-11-21T13:41:42;2.87;;;2.40;;
18322;SDS011;9287;49.456;11.064;2023-11-21T13:44:14;1.83;;;1.60;;
18322;SDS011;9287;49.456;11.064;2023-11-21T13:46:53;4.47;;;1.80;;
18322;SDS011;9287;49.456;11.064;2023-11-21T13:49:23;1.80;;;1.57;;
18322;SDS011;9287;49.456;11.064;2023-11-21T13:51:55;1.73;;;1.27;;
18322;SDS011;9287;49.456;11.064;2023-11-21T13:54:24;2.80;;;1.37;;
18322;SDS011;9287;49.456;11.064;2023-11-21T13:56:53;2.43;;;1.63;;
18322;SDS011;9287;49.456;11.064;2023-11-21T13:59:21;1.80;;;1.17;;
18322;SDS011;9287;49.456;11.064;2023-11-21T14:01:52;1.60;;;1.00;;
18322;SDS011;9287;49.456;11.064;2023-11-21T14:04:26;2.20;;;1.47;;
18322;SDS011;9287;49.456;11.064;2023-11-21T14:07:18;2.30;;;0.90;;
18322;SDS011;9287;49.456;11.064;2023-11-21T14:09:54;1.37;;;1.10;;
18322;SDS011;9287;49.456;11.064;2023-11-21T14:12:22;2.50;;;1.13;;
18322;SDS011;9287;49.456;11.064;2023-11-21T14:14:50;1.60;;;1.00;;
18322;SDS011;9287;49.456;11.064;2023-11-21T14:17:18;1.23;;;0.97;;
18322;SDS011;9287;49.456;11.064;2023-11-21T14:19:49;2.60;;;1.30;;
18322;SDS011;9287;49.456;11.064;2023-11-21T14:22:17;3.87;;;1.20;;
18322;SDS011;9287;49.456;11.064;2023-11-21T14:24:47;2.70;;;1.20;;
18322;SDS011;9287;49.456;11.064;2023-11-21T14:27:16;2.10;;;1.20;;
18322;SDS011;9287;49.456;11.064;2023-11-21T14:29:45;2.40;;;1.30;;
18322;SDS011;9287;49.456;11.064;2023-11-21T14:32:14;2.60;;;1.10;;
18322;SDS011;9287;49.456;11.064;2023-11-21T14:34:42;2.20;;;1.20;;
18322;SDS011;9287;49.456;11.064;2023-11-21T14:37:13;2.37;;;1.50;;
18322;SDS011;9287;49.456;11.064;2023-11-21T14:39:43;1.93;;;1.13;;
18322;SDS011;9287;49.456;11.064;2023-11-21T14:42:14;1.93;;;1.27;;
18322;SDS011;9287;49.456;11.064;2023-11-21T14:44:42;3.70;;;1.20;;
18322;SDS011;9287;49.456;11.064;2023-11-21T14:47:13;2.30;;;1.17;;
18322;SDS011;9287;49.456;11.064;2023-11-21T14:49:43;1.17;;;1.00;;
18322;SDS011;9287;49.456;11.064;2023-11-21T14:52:20;2.83;;;1.30;;
18322;SDS011;9287;49.456;11.064;2023-11-21T14:55:02;2.90;;;1.20;;
18322;SDS011;9287;49.456;11.064;2023-11-21T14:57:58;3.10;;;1.43;;
18322;SDS011;9287;49.456;11.064;2023-11-21T15:00:30;2.63;;;1.10;;
18322;SDS011;9287;49.456;11.064;2023-11-21T15:03:07;1.93;;;1.13;;
18322;SDS011;9287;49.456;11.064;2023-11-21T15:05:36;3.87;;;1.53;;
18322;SDS011;9287;49.456;11.064;2023-11-21T15:08:06;6.93;;;1.63;;